PWSweather.com
Personal Weather Stations
Station Observations

YeovilGB

Lat: 50.949, Lon: -2.627

Elevation: 70

Station Type: Vantage Pro

http://www.yeovil-weather.me.uk/

Latest ConditionsUpdated 11:00:03 AM GMT Wednesday, Jan 17, 2018
Currently Today's Max Today's Min Today's Average
Temperature 44.5°F6.9°C 44.5°F6.9°C 37.2°F2.9°C 39.6°F4.2°C
Dew Point 38.4°F3.6°C 38.4°F3.6°C 32.8°F0.4°C 34.1°F1.2°C
Winds Calm Calm 11.5 mph SW18.5 kmh SW - 5.9 mph 9.5 kmh
Wind Gusts 5.8 mph9.3 kmh 20.7 mph33.3 kmh - -
Humidity 79% 85% 77% 80%
Pressure 29.87 in1011.5 mb 29.87 in1011.5 mb 29.53 in1000.0 mb -
Precipitation - 0.06 in1.5 mm - -
Hour Temp Dew Point Humidity Winds Wind Gusts Pressure Precip Precip Rate Daily Precip Total
11:00 AM 44.5°F6.9°C 38.4°F3.6°C 79% Calm Calm 5.8 mph9.3 kmh 29.87 in1011.5 mb - 0.00 in0.0 mm 0.06 in1.5 mm
10:50 AM 43.7°F6.5°C 37.6°F3.1°C 79% 4.6 mph WSW7.4 kmh WSW 6.9 mph11.1 kmh 29.87 in1011.5 mb - 0.00 in0.0 mm 0.06 in1.5 mm
10:40 AM 43.1°F6.2°C 37.1°F2.8°C 79% 1.2 mph WSW1.9 kmh WSW 6.9 mph11.1 kmh 29.86 in1011.2 mb - 0.00 in0.0 mm 0.06 in1.5 mm
10:30 AM 43.0°F6.1°C 36.9°F2.7°C 79% 4.6 mph SW7.4 kmh SW 8.1 mph13.0 kmh 29.86 in1011.2 mb - 0.00 in0.0 mm 0.06 in1.5 mm
10:20 AM 42.8°F6.0°C 36.7°F2.6°C 79% 4.6 mph SW7.4 kmh SW 9.2 mph14.8 kmh 29.86 in1011.2 mb - 0.00 in0.0 mm 0.06 in1.5 mm
10:10 AM 41.9°F5.5°C 36.2°F2.3°C 80% 6.9 mph SW11.1 kmh SW 10.4 mph16.7 kmh 29.86 in1011.2 mb - 0.00 in0.0 mm 0.06 in1.5 mm
10:00 AM 41.4°F5.2°C 35.7°F2.1°C 80% 2.3 mph SW3.7 kmh SW 9.2 mph14.8 kmh 29.86 in1011.2 mb - 0.00 in0.0 mm 0.06 in1.5 mm
09:50 AM 41.4°F5.2°C 35.4°F1.9°C 79% 6.9 mph WSW11.1 kmh WSW 11.5 mph18.5 kmh 29.85 in1010.8 mb - 0.00 in0.0 mm 0.06 in1.5 mm
09:40 AM 41.5°F5.3°C 35.4°F1.9°C 79% 5.8 mph SW9.3 kmh SW 11.5 mph18.5 kmh 29.85 in1010.8 mb - 0.00 in0.0 mm 0.06 in1.5 mm
09:30 AM 41.0°F5.0°C 35.3°F1.8°C 80% 6.9 mph SW11.1 kmh SW 11.5 mph18.5 kmh 29.85 in1010.8 mb - 0.00 in0.0 mm 0.06 in1.5 mm
09:20 AM 40.5°F4.7°C 35.1°F1.7°C 81% 8.1 mph SW13.0 kmh SW 12.7 mph20.4 kmh 29.84 in1010.5 mb - 0.00 in0.0 mm 0.06 in1.5 mm
09:10 AM 40.8°F4.9°C 35.1°F1.7°C 80% 5.8 mph SW9.3 kmh SW 11.5 mph18.5 kmh 29.84 in1010.5 mb - 0.01 in0.3 mm 0.06 in1.5 mm
09:00 AM 40.6°F4.8°C 34.6°F1.4°C 79% 9.2 mph SW14.8 kmh SW 19.6 mph31.5 kmh 29.84 in1010.5 mb - 0.00 in0.0 mm 0.05 in1.3 mm
08:50 AM 40.5°F4.7°C 34.5°F1.4°C 79% 2.3 mph SW3.7 kmh SW 5.8 mph9.3 kmh 29.82 in1009.8 mb - 0.00 in0.0 mm 0.05 in1.3 mm
08:40 AM 40.5°F4.7°C 34.5°F1.4°C 79% 6.9 mph SW11.1 kmh SW 11.5 mph18.5 kmh 29.83 in1010.2 mb - 0.00 in0.0 mm 0.05 in1.3 mm
08:30 AM 40.2°F4.6°C 34.5°F1.4°C 80% 5.8 mph SW9.3 kmh SW 8.1 mph13.0 kmh 29.82 in1009.8 mb - 0.00 in0.0 mm 0.05 in1.3 mm
08:20 AM 40.2°F4.6°C 34.2°F1.2°C 79% 3.5 mph SW5.6 kmh SW 9.2 mph14.8 kmh 29.81 in1009.5 mb - 0.00 in0.0 mm 0.05 in1.3 mm
08:10 AM 40.2°F4.6°C 34.2°F1.2°C 79% 3.5 mph SW5.6 kmh SW 11.5 mph18.5 kmh 29.81 in1009.5 mb - 0.01 in0.3 mm 0.05 in1.3 mm
08:00 AM 40.2°F4.6°C 33.9°F1.1°C 78% 8.1 mph SW13.0 kmh SW 16.1 mph25.9 kmh 29.80 in1009.1 mb - 0.00 in0.0 mm 0.04 in1.0 mm
07:50 AM 40.3°F4.6°C 33.6°F0.9°C 77% 3.5 mph WSW5.6 kmh WSW 10.4 mph16.7 kmh 29.80 in1009.1 mb - 0.00 in0.0 mm 0.04 in1.0 mm
07:40 AM 40.5°F4.7°C 33.9°F1.1°C 77% 8.1 mph SW13.0 kmh SW 11.5 mph18.5 kmh 29.79 in1008.8 mb - 0.00 in0.0 mm 0.04 in1.0 mm
07:30 AM 40.5°F4.7°C 33.9°F1.1°C 77% 4.6 mph SW7.4 kmh SW 9.2 mph14.8 kmh 29.78 in1008.5 mb - 0.00 in0.0 mm 0.04 in1.0 mm
07:20 AM 40.6°F4.8°C 34.0°F1.1°C 77% 6.9 mph WSW11.1 kmh WSW 11.5 mph18.5 kmh 29.77 in1008.1 mb - 0.00 in0.0 mm 0.04 in1.0 mm
07:10 AM 40.5°F4.7°C 33.9°F1.1°C 77% 5.8 mph WSW9.3 kmh WSW 9.2 mph14.8 kmh 29.77 in1008.1 mb - 0.00 in0.0 mm 0.04 in1.0 mm
07:00 AM 40.5°F4.7°C 34.2°F1.2°C 78% 8.1 mph SW13.0 kmh SW 16.1 mph25.9 kmh 29.76 in1007.8 mb - 0.00 in0.0 mm 0.04 in1.0 mm
06:50 AM 40.4°F4.7°C 33.8°F1.0°C 77% 8.1 mph SW13.0 kmh SW 12.7 mph20.4 kmh 29.76 in1007.8 mb - 0.01 in0.3 mm 0.04 in1.0 mm
06:40 AM 40.3°F4.6°C 33.6°F0.9°C 77% 8.1 mph SW13.0 kmh SW 15.0 mph24.1 kmh 29.75 in1007.5 mb - 0.00 in0.0 mm 0.03 in0.8 mm
06:30 AM 40.1°F4.5°C 33.5°F0.8°C 77% 5.8 mph WSW9.3 kmh WSW 12.7 mph20.4 kmh 29.75 in1007.5 mb - 0.00 in0.0 mm 0.03 in0.8 mm
06:20 AM 39.8°F4.3°C 33.5°F0.8°C 78% 5.8 mph SW9.3 kmh SW 9.2 mph14.8 kmh 29.75 in1007.5 mb - 0.00 in0.0 mm 0.03 in0.8 mm
06:10 AM 39.7°F4.3°C 33.4°F0.8°C 78% 2.3 mph WSW3.7 kmh WSW 12.7 mph20.4 kmh 29.74 in1007.1 mb - 0.00 in0.0 mm 0.03 in0.8 mm
06:00 AM 39.8°F4.3°C 33.5°F0.8°C 78% 4.6 mph WSW7.4 kmh WSW 12.7 mph20.4 kmh 29.73 in1006.8 mb - 0.00 in0.0 mm 0.03 in0.8 mm
05:50 AM 39.6°F4.2°C 33.6°F0.9°C 79% 5.8 mph NW9.3 kmh NW 10.4 mph16.7 kmh 29.73 in1006.8 mb - 0.01 in0.3 mm 0.03 in0.8 mm
05:40 AM 39.3°F4.1°C 33.6°F0.9°C 80% 4.6 mph SW7.4 kmh SW 11.5 mph18.5 kmh 29.72 in1006.4 mb - 0.00 in0.0 mm 0.02 in0.5 mm
05:30 AM 39.3°F4.1°C 33.6°F0.9°C 80% 3.5 mph WSW5.6 kmh WSW 8.1 mph13.0 kmh 29.72 in1006.4 mb - 0.00 in0.0 mm 0.02 in0.5 mm
05:20 AM 39.3°F4.1°C 33.7°F0.9°C 80% 5.8 mph SW9.3 kmh SW 8.1 mph13.0 kmh 29.71 in1006.1 mb - 0.00 in0.0 mm 0.02 in0.5 mm
05:10 AM 39.7°F4.3°C 33.7°F0.9°C 79% 9.2 mph WSW14.8 kmh WSW 15.0 mph24.1 kmh 29.70 in1005.8 mb - 0.00 in0.0 mm 0.02 in0.5 mm
05:00 AM 39.4°F4.1°C 33.4°F0.8°C 79% 9.2 mph SW14.8 kmh SW 12.7 mph20.4 kmh 29.69 in1005.4 mb - 0.00 in0.0 mm 0.02 in0.5 mm
04:50 AM 39.0°F3.9°C 33.0°F0.6°C 79% 9.2 mph WSW14.8 kmh WSW 12.7 mph20.4 kmh 29.68 in1005.1 mb - 0.00 in0.0 mm 0.02 in0.5 mm
04:40 AM 38.7°F3.7°C 33.1°F0.6°C 80% 4.6 mph SW7.4 kmh SW 11.5 mph18.5 kmh 29.67 in1004.7 mb - 0.00 in0.0 mm 0.02 in0.5 mm
04:30 AM 38.6°F3.7°C 33.3°F0.7°C 81% 4.6 mph WSW7.4 kmh WSW 9.2 mph14.8 kmh 29.67 in1004.7 mb - 0.00 in0.0 mm 0.02 in0.5 mm
04:20 AM 38.0°F3.3°C 33.0°F0.6°C 82% 4.6 mph WSW7.4 kmh WSW 12.7 mph20.4 kmh 29.66 in1004.4 mb - 0.00 in0.0 mm 0.02 in0.5 mm
04:10 AM 37.5°F3.1°C 33.1°F0.6°C 84% 3.5 mph SW5.6 kmh SW 8.1 mph13.0 kmh 29.66 in1004.4 mb - 0.00 in0.0 mm 0.02 in0.5 mm
04:00 AM 37.2°F2.9°C 32.8°F0.4°C 84% 5.8 mph SW9.3 kmh SW 9.2 mph14.8 kmh 29.65 in1004.1 mb - 0.00 in0.0 mm 0.02 in0.5 mm
03:50 AM 37.4°F3.0°C 33.0°F0.6°C 84% 6.9 mph SW11.1 kmh SW 12.7 mph20.4 kmh 29.64 in1003.7 mb - 0.00 in0.0 mm 0.02 in0.5 mm
03:40 AM 38.1°F3.4°C 33.1°F0.6°C 82% 6.9 mph WSW11.1 kmh WSW 12.7 mph20.4 kmh 29.64 in1003.7 mb - 0.00 in0.0 mm 0.02 in0.5 mm
03:30 AM 38.7°F3.7°C 33.7°F0.9°C 82% 10.4 mph WSW16.7 kmh WSW 20.7 mph33.3 kmh 29.64 in1003.7 mb - 0.00 in0.0 mm 0.02 in0.5 mm
03:20 AM 38.6°F3.7°C 33.3°F0.7°C 81% 6.9 mph SW11.1 kmh SW 11.5 mph18.5 kmh 29.63 in1003.4 mb - 0.01 in0.3 mm 0.02 in0.5 mm
03:10 AM 38.7°F3.7°C 33.4°F0.8°C 81% 2.3 mph WSW3.7 kmh WSW 4.6 mph7.4 kmh 29.62 in1003.0 mb - 0.00 in0.0 mm 0.02 in0.5 mm
03:00 AM 38.4°F3.6°C 33.4°F0.8°C 82% 6.9 mph WSW11.1 kmh WSW 11.5 mph18.5 kmh 29.62 in1003.0 mb - 0.00 in0.0 mm 0.02 in0.5 mm
02:50 AM 38.3°F3.5°C 33.6°F0.9°C 83% 6.9 mph SW11.1 kmh SW 10.4 mph16.7 kmh 29.61 in1002.7 mb - 0.00 in0.0 mm 0.02 in0.5 mm
02:40 AM 38.6°F3.7°C 33.9°F1.1°C 83% 4.6 mph WSW7.4 kmh WSW 10.4 mph16.7 kmh 29.61 in1002.7 mb - 0.01 in0.3 mm 0.02 in0.5 mm
02:30 AM 38.7°F3.7°C 33.7°F0.9°C 82% 9.2 mph WSW14.8 kmh WSW 13.8 mph22.2 kmh 29.60 in1002.4 mb - 0.00 in0.0 mm 0.01 in0.3 mm
02:20 AM 38.7°F3.7°C 33.6°F0.9°C 82% 3.5 mph SW5.6 kmh SW 9.2 mph14.8 kmh 29.60 in1002.4 mb - 0.00 in0.0 mm 0.01 in0.3 mm
02:10 AM 38.6°F3.7°C 33.6°F0.9°C 82% 6.9 mph SW11.1 kmh SW 9.2 mph14.8 kmh 29.60 in1002.4 mb - 0.00 in0.0 mm 0.01 in0.3 mm
02:00 AM 38.3°F3.5°C 33.3°F0.7°C 82% 5.8 mph WSW9.3 kmh WSW 11.5 mph18.5 kmh 29.59 in1002.0 mb - 0.00 in0.0 mm 0.01 in0.3 mm
01:50 AM 38.4°F3.6°C 33.4°F0.8°C 82% 3.5 mph W5.6 kmh W 11.5 mph18.5 kmh 29.58 in1001.7 mb - 0.01 in0.3 mm 0.01 in0.3 mm
01:40 AM 38.8°F3.8°C 33.2°F0.7°C 80% 4.6 mph WSW7.4 kmh WSW 10.4 mph16.7 kmh 29.58 in1001.7 mb - 0.00 in0.0 mm 0.00 in0.0 mm
01:30 AM 38.8°F3.8°C 33.1°F0.6°C 80% 11.5 mph SW18.5 kmh SW 20.7 mph33.3 kmh 29.57 in1001.4 mb - 0.00 in0.0 mm 0.00 in0.0 mm
01:20 AM 38.4°F3.6°C 32.8°F0.4°C 80% 10.4 mph SW16.7 kmh SW 16.1 mph25.9 kmh 29.56 in1001.0 mb - 0.00 in0.0 mm 0.00 in0.0 mm
01:10 AM 38.1°F3.4°C 33.1°F0.6°C 82% 5.8 mph SW9.3 kmh SW 12.7 mph20.4 kmh 29.55 in1000.7 mb - 0.00 in0.0 mm 0.00 in0.0 mm
01:00 AM 38.0°F3.3°C 33.6°F0.9°C 84% 4.6 mph WSW7.4 kmh WSW 11.5 mph18.5 kmh 29.55 in1000.7 mb - 0.00 in0.0 mm 0.00 in0.0 mm
12:50 AM 38.0°F3.3°C 33.3°F0.7°C 83% 8.1 mph SW13.0 kmh SW 13.8 mph22.2 kmh 29.55 in1000.7 mb - 0.00 in0.0 mm 0.00 in0.0 mm
12:40 AM 38.0°F3.3°C 33.3°F0.7°C 83% 5.8 mph SW9.3 kmh SW 12.7 mph20.4 kmh 29.54 in1000.3 mb - 0.00 in0.0 mm 0.00 in0.0 mm
12:30 AM 38.0°F3.3°C 33.3°F0.7°C 83% 6.9 mph WSW11.1 kmh WSW 13.8 mph22.2 kmh 29.54 in1000.3 mb - 0.00 in0.0 mm 0.00 in0.0 mm
12:20 AM 38.2°F3.4°C 33.5°F0.8°C 83% 4.6 mph SW7.4 kmh SW 11.5 mph18.5 kmh 29.54 in1000.3 mb - 0.00 in0.0 mm 0.00 in0.0 mm
12:10 AM 38.1°F3.4°C 33.7°F0.9°C 84% 4.6 mph WSW7.4 kmh WSW 15.0 mph24.1 kmh 29.54 in1000.3 mb - 0.00 in0.0 mm 0.00 in0.0 mm
12:00 AM 37.9°F3.3°C 33.8°F1.0°C 85% 9.2 mph WSW14.8 kmh WSW 15.0 mph24.1 kmh 29.53 in1000.0 mb - 0.00 in0.0 mm 0.00 in0.0 mm